Time;durP1;ratioP1;P1;durP2;ratioP2;P2;SDS_P1;SDS_P2;PMS_P1;PMS_P2;Temp;Humidity;BMP_temperature;BMP_pressure;BME280_temperature;BME280_humidity;BME280_pressure;Samples;Min_cycle;Max_cycle;Signal;HPM_P1;HPM_P2
2023/03/28 00:01:05;;;;;;;13.38;4.40;;;;;;;5.86;57.40;99674.00;5098866;28;20509;-50
2023/03/28 00:03:35;;;;;;;15.30;5.28;;;;;;;5.86;57.60;99675.81;5098864;28;20098;-49
2023/03/28 00:06:01;;;;;;;16.88;5.60;;;;;;;5.77;58.86;99673.09;5098548;28;20020;-52
2023/03/28 00:08:28;;;;;;;11.88;5.25;;;;;;;5.43;59.25;99672.00;5098530;28;20031;-49
2023/03/28 00:11:20;;;;;;;13.98;5.38;;;;;;;5.06;59.84;99675.41;5080305;28;20089;-49
2023/03/28 00:13:56;;;;;;;12.75;5.53;;;;;;;4.91;60.83;99667.19;5098508;28;20032;-49
2023/03/28 00:16:30;;;;;;;7.65;5.20;;;;;;;4.73;61.29;99669.72;5098397;28;20053;-49
2023/03/28 00:18:59;;;;;;;9.82;5.43;;;;;;;4.73;62.12;99661.91;5098454;28;20031;-49
2023/03/28 00:21:30;;;;;;;8.35;3.83;;;;;;;4.68;62.59;99664.09;5098382;28;20553;-49
2023/03/28 00:24:00;;;;;;;9.20;4.20;;;;;;;4.56;63.30;99666.81;5080146;28;20196;-49
2023/03/28 00:26:27;;;;;;;11.55;4.57;;;;;;;4.58;62.89;99657.13;5098347;28;20044;-49
2023/03/28 00:28:54;;;;;;;10.85;3.47;;;;;;;4.66;63.02;99659.03;5098316;28;20024;-49
2023/03/28 00:31:20;;;;;;;11.27;4.13;;;;;;;4.80;63.14;99652.59;5080047;28;20017;-50
2023/03/28 00:33:46;;;;;;;5.88;3.20;;;;;;;5.04;63.27;99646.91;5098309;28;20489;-50
2023/03/28 00:36:25;;;;;;;7.68;3.85;;;;;;;5.19;62.72;99639.47;5098276;28;20095;-49
2023/03/28 00:38:52;;;;;;;10.40;3.85;;;;;;;5.21;62.51;99642.75;5098520;28;20028;-49
2023/03/28 00:41:22;;;;;;;12.95;5.13;;;;;;;5.39;62.16;99638.47;5080020;28;20027;-49
2023/03/28 00:43:51;;;;;;;10.93;4.53;;;;;;;5.40;61.66;99639.28;5080377;28;20028;-49
2023/03/28 00:46:33;;;;;;;18.98;12.07;;;;;;;5.18;61.97;99637.84;5098158;28;20016;-49
2023/03/28 00:49:08;;;;;;;28.45;21.20;;;;;;;5.11;62.34;99637.59;5098155;28;20115;-50
2023/03/28 00:51:39;;;;;;;20.13;9.52;;;;;;;5.05;62.34;99638.19;5080898;28;20110;-49
2023/03/28 00:54:08;;;;;;;8.32;4.97;;;;;;;5.10;62.78;99641.16;5097850;28;20047;-50
2023/03/28 00:56:36;;;;;;;9.90;4.50;;;;;;;5.03;62.13;99636.66;5098344;28;20401;-49
2023/03/28 00:59:07;;;;;;;10.98;4.55;;;;;;;4.88;62.46;99636.28;5098335;28;20117;-49
2023/03/28 01:01:34;;;;;;;12.95;4.95;;;;;;;4.68;62.60;99635.50;5080452;28;20031;-49
2023/03/28 01:04:02;;;;;;;10.57;4.40;;;;;;;4.48;62.65;99635.50;5098000;28;20032;-49
2023/03/28 01:06:33;;;;;;;9.63;4.22;;;;;;;4.54;63.27;99640.16;5078831;28;20017;-49
2023/03/28 01:09:03;;;;;;;13.52;4.20;;;;;;;4.64;63.56;99634.13;5094806;28;20085;-49
2023/03/28 01:11:30;;;;;;;10.73;5.13;;;;;;;4.66;63.60;99633.03;5095011;28;20524;-49
2023/03/28 01:14:01;;;;;;;14.10;4.88;;;;;;;4.47;62.86;99635.66;5076500;28;20047;-49
2023/03/28 01:16:29;;;;;;;7.78;4.78;;;;;;;4.46;63.14;99626.22;5094557;28;20039;-49
2023/03/28 01:19:00;;;;;;;9.73;4.45;;;;;;;4.41;63.62;99634.44;5094661;28;20063;-49
2023/03/28 01:21:47;;;;;;;10.38;4.03;;;;;;;4.49;63.91;99634.56;5094507;28;20154;-49
2023/03/28 01:24:35;;;;;;;10.20;4.07;;;;;;;4.43;64.22;99629.91;5076355;28;20039;-49
2023/03/28 01:27:00;;;;;;;10.32;4.18;;;;;;;4.47;64.29;99622.66;5094374;28;20398;-50
2023/03/28 01:29:53;;;;;;;11.07;4.47;;;;;;;4.52;63.99;99623.06;5094475;28;20050;-49
2023/03/28 01:32:53;;;;;;;13.50;4.43;;;;;;;4.52;64.12;99625.66;5094376;28;20388;-49
2023/03/28 01:35:25;;;;;;;13.60;4.00;;;;;;;4.49;64.26;99620.75;5094291;28;20028;-49
2023/03/28 01:38:12;;;;;;;9.85;4.65;;;;;;;4.62;65.20;99613.47;5094323;28;20028;-49
2023/03/28 01:40:59;;;;;;;9.63;3.83;;;;;;;4.86;64.47;99617.41;5094270;28;20039;-49
2023/03/28 01:43:55;;;;;;;8.75;4.22;;;;;;;4.86;63.82;99615.63;5076060;28;20166;-49
2023/03/28 01:46:26;;;;;;;9.07;3.57;;;;;;;4.91;64.18;99610.81;5065063;28;20470;-49
2023/03/28 01:49:36;;;;;;;9.75;3.58;;;;;;;4.96;64.29;99619.00;5094129;28;20282;-49
2023/03/28 01:52:23;;;;;;;6.40;3.55;;;;;;;5.00;63.39;99612.56;5011784;28;20030;-50
2023/03/28 01:55:04;;;;;;;9.50;4.28;;;;;;;5.00;63.04;99615.16;4975862;28;20046;-50
2023/03/28 01:57:29;;;;;;;8.63;3.60;;;;;;;5.06;63.62;99602.56;4992343;28;20038;-49
2023/03/28 02:00:18;;;;;;;10.98;5.05;;;;;;;5.32;63.21;99600.94;4992182;28;20456;-50
2023/03/28 02:03:10;;;;;;;7.38;3.33;;;;;;;5.48;62.72;99607.31;4992172;28;20073;-50
2023/03/28 02:05:38;;;;;;;11.48;3.80;;;;;;;5.33;61.97;99600.00;4992132;28;20069;-50
2023/03/28 02:08:09;;;;;;;7.53;4.68;;;;;;;4.99;61.60;99599.72;4991881;28;20404;-50
2023/03/28 02:10:40;;;;;;;9.93;3.78;;;;;;;4.72;62.55;99601.25;4991846;28;20054;-49
2023/03/28 02:13:12;;;;;;;8.45;4.53;;;;;;;4.52;62.90;99590.06;4975557;28;20030;-49
2023/03/28 02:15:39;;;;;;;8.60;4.20;;;;;;;4.32;63.50;99594.47;4991776;28;20100;-50
2023/03/28 02:18:13;;;;;;;10.30;4.72;;;;;;;4.25;64.32;99589.97;4991343;28;20416;-49
2023/03/28 02:20:41;;;;;;;9.65;3.13;;;;;;;4.24;64.54;99590.94;4991508;28;20121;-49
2023/03/28 02:23:43;;;;;;;8.30;3.63;;;;;;;4.12;64.21;99582.44;5032457;28;20090;-49
2023/03/28 02:26:09;;;;;;;8.00;3.72;;;;;;;3.91;64.63;99586.00;5053022;28;20086;-49
2023/03/28 02:28:36;;;;;;;9.65;6.47;;;;;;;3.86;64.96;99587.34;5034929;28;20028;-50
2023/03/28 02:31:04;;;;;;;12.27;5.00;;;;;;;3.61;65.48;99584.31;5052743;28;20025;-49
2023/03/28 02:33:40;;;;;;;7.93;4.55;;;;;;;3.59;65.68;99581.84;5035102;28;20024;-49
2023/03/28 02:36:09;;;;;;;8.65;4.70;;;;;;;3.54;65.96;99578.00;5053169;28;20075;-49
2023/03/28 02:38:57;;;;;;;12.30;5.45;;;;;;;3.57;66.27;99578.56;5034892;28;20033;-49
2023/03/28 02:41:35;;;;;;;8.27;4.40;;;;;;;3.63;65.98;99584.19;5052770;28;20040;-50
2023/03/28 02:44:13;;;;;;;11.02;5.25;;;;;;;3.64;66.34;99581.44;5052816;28;20073;-49
2023/03/28 02:47:00;;;;;;;9.93;4.72;;;;;;;3.59;65.92;99584.44;5052737;28;20056;-49
2023/03/28 02:49:52;;;;;;;11.68;4.97;;;;;;;3.60;66.50;99580.91;5052625;28;20051;-49
2023/03/28 02:52:33;;;;;;;17.77;4.60;;;;;;;3.72;66.90;99580.75;5050722;28;20098;-49
2023/03/28 02:55:12;;;;;;;12.07;4.88;;;;;;;3.73;66.60;99575.44;5072172;28;20387;-49
2023/03/28 02:57:47;;;;;;;13.38;5.60;;;;;;;3.87;66.43;99568.22;5072347;28;20430;-50
2023/03/28 03:00:18;;;;;;;13.30;4.65;;;;;;;4.17;66.58;99569.88;5072413;28;20111;-49
2023/03/28 03:02:48;;;;;;;13.60;4.20;;;;;;;4.35;65.85;99564.81;5072301;28;20072;-49
2023/03/28 03:05:14;;;;;;;14.05;5.25;;;;;;;4.50;65.55;99571.19;5072431;28;20021;-50
2023/03/28 03:07:41;;;;;;;14.32;4.25;;;;;;;4.64;65.45;99569.13;5070857;28;20094;-50
2023/03/28 03:10:10;;;;;;;12.43;4.65;;;;;;;4.72;65.80;99574.44;5072232;28;20055;-49
2023/03/28 03:12:35;;;;;;;9.60;3.88;;;;;;;4.83;64.97;99576.06;5072105;28;20099;-49
2023/03/28 03:15:03;;;;;;;10.07;4.38;;;;;;;4.97;64.84;99567.78;5072110;28;20108;-49
2023/03/28 03:17:29;;;;;;;14.45;3.95;;;;;;;5.05;64.60;99567.94;5072159;28;20105;-49
2023/03/28 03:19:55;;;;;;;7.68;3.50;;;;;;;5.20;63.88;99574.28;5072065;28;20043;-50
2023/03/28 03:22:22;;;;;;;10.35;3.92;;;;;;;5.36;64.07;99571.06;5070770;28;20401;-50
2023/03/28 03:24:49;;;;;;;8.57;3.95;;;;;;;5.56;63.99;99577.00;5054427;28;20021;-49
2023/03/28 03:27:19;;;;;;;12.20;4.07;;;;;;;5.71;63.22;99571.28;5071770;28;20024;-49
2023/03/28 03:29:45;;;;;;;13.05;3.95;;;;;;;5.77;62.13;99570.69;5071255;28;20029;-49
2023/03/28 03:32:11;;;;;;;9.68;3.92;;;;;;;5.76;62.26;99571.66;5071992;28;20031;-50
2023/03/28 03:34:36;;;;;;;13.18;4.05;;;;;;;5.77;61.39;99576.72;5071868;28;20082;-49
2023/03/28 03:37:03;;;;;;;14.80;4.05;;;;;;;5.73;60.95;99572.75;5053846;28;20490;-50
2023/03/28 03:39:29;;;;;;;14.80;3.40;;;;;;;5.72;61.86;99573.75;5072000;28;20095;-50
2023/03/28 03:41:55;;;;;;;8.45;3.45;;;;;;;5.79;61.55;99580.00;5072114;28;20028;-49
2023/03/28 03:44:21;;;;;;;8.85;3.30;;;;;;;5.85;61.64;99578.59;5070640;28;20024;-49
2023/03/28 03:46:48;;;;;;;7.50;3.50;;;;;;;5.94;61.89;99567.28;5071821;28;20433;-50
2023/03/28 03:49:14;;;;;;;11.10;3.58;;;;;;;6.13;60.38;99571.53;5071766;28;20066;-49
2023/03/28 03:51:40;;;;;;;9.93;3.88;;;;;;;6.03;60.20;99577.81;5071956;28;20033;-50
2023/03/28 03:54:05;;;;;;;10.15;3.78;;;;;;;5.86;60.18;99579.41;5071549;28;20406;-49
2023/03/28 03:56:32;;;;;;;12.77;4.72;;;;;;;5.63;60.12;99576.41;5071648;28;20031;-49
2023/03/28 03:58:58;;;;;;;13.57;3.78;;;;;;;5.39;60.54;99590.78;5071602;28;20029;-49
2023/03/28 04:01:24;;;;;;;13.07;5.05;;;;;;;5.17;60.84;99582.41;5070333;28;20119;-49
2023/03/28 04:03:50;;;;;;;14.73;5.32;;;;;;;4.88;60.62;99589.47;5071858;28;20082;-49
2023/03/28 04:06:17;;;;;;;12.50;4.10;;;;;;;4.50;61.41;99592.00;5070314;28;20027;-49
2023/03/28 04:08:43;;;;;;;10.00;5.63;;;;;;;4.13;62.30;99582.31;5071422;28;20021;-49
2023/03/28 04:11:09;;;;;;;10.55;4.70;;;;;;;4.01;63.54;99580.81;5071484;28;20028;-49
2023/03/28 04:13:35;;;;;;;11.10;5.03;;;;;;;3.78;63.79;99586.25;5071721;28;20385;-49
2023/03/28 04:16:01;;;;;;;12.35;4.15;;;;;;;3.69;64.46;99584.44;5070137;28;20031;-49
2023/03/28 04:18:28;;;;;;;14.77;5.70;;;;;;;3.92;65.28;99586.81;5071429;28;20031;-50
2023/03/28 04:20:57;;;;;;;16.70;5.10;;;;;;;4.01;64.73;99588.59;5070388;28;20025;-49
2023/03/28 04:23:24;;;;;;;11.68;5.47;;;;;;;3.86;64.41;99593.34;5071439;28;20455;-49
2023/03/28 04:25:57;;;;;;;16.23;5.53;;;;;;;3.75;64.75;99589.09;5071412;28;20021;-50
2023/03/28 04:28:24;;;;;;;17.20;4.47;;;;;;;3.47;64.76;99587.28;5071388;28;20051;-49
2023/03/28 04:30:56;;;;;;;17.27;4.53;;;;;;;3.27;65.63;99587.19;5070028;28;20026;-49
2023/03/28 04:33:24;;;;;;;10.50;4.97;;;;;;;3.24;66.18;99592.66;5071597;28;20426;-49
2023/03/28 04:36:04;;;;;;;16.77;4.32;;;;;;;3.30;66.65;99594.75;5069969;28;20111;-49
2023/03/28 04:38:35;;;;;;;40.90;34.55;;;;;;;3.54;66.97;99588.38;5071318;28;20079;-49
2023/03/28 04:41:01;;;;;;;29.65;22.45;;;;;;;3.55;65.98;99577.06;5071507;28;20043;-49
2023/03/28 04:43:27;;;;;;;13.52;6.13;;;;;;;3.43;66.05;99583.31;5074975;28;20024;-49
2023/03/28 04:45:54;;;;;;;15.70;6.15;;;;;;;3.46;66.71;99585.63;5074810;28;20013;-50
2023/03/28 04:48:20;;;;;;;11.55;5.05;;;;;;;3.21;66.40;99587.72;5073495;28;20477;-49
2023/03/28 04:50:45;;;;;;;24.27;5.30;;;;;;;2.96;67.27;99582.03;5073526;28;20035;-50
2023/03/28 04:53:12;;;;;;;15.73;5.32;;;;;;;2.97;67.82;99585.44;5074567;28;20152;-49
2023/03/28 04:55:38;;;;;;;8.68;3.55;;;;;;;3.02;67.78;99590.22;5074661;28;20084;-50
2023/03/28 04:58:06;;;;;;;15.43;4.82;;;;;;;2.95;67.89;99592.53;5073418;28;20052;-50
2023/03/28 05:00:32;;;;;;;9.35;3.88;;;;;;;3.02;68.42;99592.81;5074566;28;20025;-49
2023/03/28 05:03:03;;;;;;;14.05;4.80;;;;;;;3.04;68.39;99596.94;5074646;28;20028;-50
2023/03/28 05:05:29;;;;;;;10.98;4.93;;;;;;;3.20;68.59;99592.09;5074584;28;20112;-50
2023/03/28 05:07:56;;;;;;;11.15;4.35;;;;;;;3.18;68.17;99594.00;5073100;28;20036;-50
2023/03/28 05:10:21;;;;;;;22.23;6.28;;;;;;;3.29;68.08;99593.09;5073207;28;20103;-50
2023/03/28 05:12:47;;;;;;;11.40;6.85;;;;;;;3.26;67.66;99595.09;5074571;28;20489;-50
2023/03/28 05:15:13;;;;;;;16.60;5.55;;;;;;;3.16;67.48;99605.47;5073258;28;20040;-50
2023/03/28 05:17:39;;;;;;;12.45;5.53;;;;;;;3.10;68.32;99600.78;5074336;28;20033;-49
2023/03/28 05:20:10;;;;;;;14.07;4.38;;;;;;;3.14;68.36;99604.75;5074272;28;20031;-50
2023/03/28 05:22:37;;;;;;;11.00;6.03;;;;;;;3.07;67.73;99606.22;5074629;28;20071;-49
2023/03/28 05:25:03;;;;;;;11.60;5.97;;;;;;;3.03;68.31;99605.66;5072917;28;20016;-50
2023/03/28 05:27:29;;;;;;;8.25;4.78;;;;;;;2.97;68.37;99607.00;5074138;28;20059;-49
2023/03/28 05:29:55;;;;;;;17.92;6.28;;;;;;;3.02;68.64;99610.97;5074146;28;20103;-49
2023/03/28 05:32:21;;;;;;;16.63;5.50;;;;;;;3.07;68.66;99609.63;5072840;28;20016;-49
2023/03/28 05:34:47;;;;;;;17.30;5.95;;;;;;;2.96;68.06;99615.75;5072801;28;20052;-49
2023/03/28 05:37:12;;;;;;;16.30;6.60;;;;;;;2.80;68.25;99621.38;5072623;28;20111;-49
2023/03/28 05:39:38;;;;;;;12.07;4.75;;;;;;;2.84;69.45;99628.88;5072689;28;20107;-49
2023/03/28 05:42:04;;;;;;;10.43;5.75;;;;;;;3.21;68.96;99621.44;5073724;28;20025;-49
2023/03/28 05:44:30;;;;;;;14.52;4.95;;;;;;;4.03;67.49;99615.25;5073919;28;20025;-49
2023/03/28 05:46:56;;;;;;;9.60;5.68;;;;;;;4.80;65.33;99619.59;5072565;28;20025;-49
2023/03/28 05:49:21;;;;;;;14.48;8.57;;;;;;;5.40;62.61;99613.25;5074006;28;20592;-49
2023/03/28 05:51:47;;;;;;;15.13;8.27;;;;;;;5.70;61.27;99614.75;5072553;28;20091;-49
2023/03/28 05:54:13;;;;;;;12.85;5.53;;;;;;;6.02;59.96;99621.31;5072541;28;20063;-49
2023/03/28 05:56:38;;;;;;;24.13;7.20;;;;;;;6.51;59.93;99621.72;5072389;28;20040;-49
2023/03/28 05:59:04;;;;;;;19.08;5.95;;;;;;;6.84;57.83;99613.31;5072310;28;20416;-50
2023/03/28 06:01:30;;;;;;;22.40;6.38;;;;;;;6.92;56.36;99619.44;5073612;28;20099;-49
2023/03/28 06:03:56;;;;;;;16.67;6.85;;;;;;;7.02;55.48;99621.09;5073505;28;20063;-49
2023/03/28 06:06:22;;;;;;;16.33;5.07;;;;;;;7.06;54.60;99619.81;5073489;28;20017;-49
2023/03/28 06:08:47;;;;;;;24.25;6.43;;;;;;;7.30;54.28;99613.91;5073430;28;20029;-50
2023/03/28 06:11:13;;;;;;;9.95;5.05;;;;;;;7.53;53.15;99617.59;5072047;28;20099;-49
2023/03/28 06:13:38;;;;;;;14.93;5.65;;;;;;;7.90;52.91;99618.19;5073308;28;20025;-49
2023/03/28 06:16:04;;;;;;;14.38;4.65;;;;;;;8.48;52.70;99609.47;5073254;28;20025;-49
2023/03/28 06:18:30;;;;;;;8.35;4.88;;;;;;;8.57;50.30;99618.13;5072075;28;20037;-49
2023/03/28 06:20:56;;;;;;;12.35;4.97;;;;;;;8.40;50.74;99620.72;5073330;28;20075;-50
2023/03/28 06:23:22;;;;;;;13.15;5.65;;;;;;;8.22;50.10;99619.25;5072002;28;20021;-49
2023/03/28 06:25:48;;;;;;;13.20;5.32;;;;;;;8.02;51.02;99618.72;5073176;28;20490;-49
2023/03/28 06:28:14;;;;;;;15.73;5.97;;;;;;;7.77;51.56;99624.72;5073060;28;20083;-50
2023/03/28 06:30:40;;;;;;;13.90;4.93;;;;;;;7.78;53.20;99617.69;5073247;28;20020;-50
2023/03/28 06:33:06;;;;;;;17.23;5.85;;;;;;;8.25;53.08;99626.75;5073229;28;20455;-50
2023/03/28 06:35:33;;;;;;;11.50;5.70;;;;;;;8.74;51.76;99622.38;5071587;28;20497;-50
2023/03/28 06:37:59;;;;;;;8.00;5.35;;;;;;;9.20;49.74;99616.56;5071616;28;20135;-50
2023/03/28 06:40:25;;;;;;;12.95;5.90;;;;;;;9.58;48.32;99619.38;5072873;28;20021;-49
2023/03/28 06:42:51;;;;;;;13.88;5.28;;;;;;;9.98;47.88;99620.16;5072809;28;20021;-50
2023/03/28 06:45:18;;;;;;;12.85;6.43;;;;;;;10.16;47.27;99618.06;5072775;28;20032;-50
2023/03/28 06:47:44;;;;;;;11.60;5.40;;;;;;;10.76;46.59;99607.78;5072552;28;20052;-50
2023/03/28 06:50:10;;;;;;;12.02;5.25;;;;;;;11.29;44.62;99612.97;5071320;28;20375;-50
2023/03/28 06:52:36;;;;;;;21.17;6.90;;;;;;;11.65;44.61;99612.19;5071087;28;20023;-52
2023/03/28 06:55:03;;;;;;;14.88;5.90;;;;;;;11.99;42.51;99620.34;5071199;28;20028;-50
2023/03/28 06:57:29;;;;;;;10.98;5.57;;;;;;;12.13;42.70;99623.09;5072451;28;20039;-50
2023/03/28 06:59:54;;;;;;;14.43;5.20;;;;;;;13.03;41.66;99618.97;5072466;28;20028;-50
2023/03/28 07:02:20;;;;;;;14.82;6.68;;;;;;;14.04;40.05;99621.03;5071141;28;20024;-50
2023/03/28 07:04:46;;;;;;;13.55;6.15;;;;;;;15.17;38.28;99618.44;5071003;28;20021;-50
2023/03/28 07:07:12;;;;;;;10.35;6.22;;;;;;;15.65;36.48;99609.31;5070856;28;20024;-50
2023/03/28 07:09:37;;;;;;;12.32;5.10;;;;;;;16.12;35.90;99611.75;5070927;28;20048;-50
2023/03/28 07:12:03;;;;;;;104.82;95.32;;;;;;;17.03;35.39;99617.59;5070879;28;20024;-51
2023/03/28 07:14:29;;;;;;;19.15;15.90;;;;;;;17.24;34.17;99617.13;5072216;28;20099;-49
2023/03/28 07:16:55;;;;;;;14.23;7.55;;;;;;;17.35;34.20;99613.75;5070728;28;20481;-48
2023/03/28 07:19:21;;;;;;;13.13;5.40;;;;;;;17.56;34.50;99609.00;5072096;28;20048;-49
2023/03/28 07:21:47;;;;;;;15.45;5.85;;;;;;;18.12;33.70;99612.38;5072591;28;20500;-48
2023/03/28 07:24:13;;;;;;;11.07;5.40;;;;;;;18.55;32.88;99614.78;5072016;28;20090;-48
2023/03/28 07:26:39;;;;;;;18.45;5.97;;;;;;;18.66;31.64;99615.84;5071973;28;20055;-48
2023/03/28 07:29:05;;;;;;;17.25;6.55;;;;;;;18.76;31.83;99612.59;5071848;28;20052;-48
2023/03/28 07:31:30;;;;;;;20.40;5.78;;;;;;;19.08;31.29;99614.94;5071879;28;20060;-48
2023/03/28 07:33:56;;;;;;;13.77;5.32;;;;;;;19.39;30.93;99618.25;5071885;28;20036;-48
2023/03/28 07:36:25;;;;;;;10.85;4.80;;;;;;;20.00;29.65;99621.28;5070536;28;20028;-48
2023/03/28 07:38:51;;;;;;;11.07;5.15;;;;;;;19.78;30.29;99626.47;5071716;28;20028;-48
2023/03/28 07:41:17;;;;;;;14.75;5.55;;;;;;;20.27;29.81;99627.66;5071777;28;20063;-48
2023/03/28 07:43:43;;;;;;;13.52;4.97;;;;;;;20.39;29.07;99632.13;5070508;28;20111;-48
2023/03/28 07:46:13;;;;;;;11.07;6.10;;;;;;;20.27;29.56;99627.66;5071716;28;20461;-48
2023/03/28 07:48:42;;;;;;;13.75;6.22;;;;;;;20.39;29.03;99619.59;5071623;28;20020;-46
2023/03/28 07:51:09;;;;;;;9.70;5.55;;;;;;;21.02;28.48;99630.16;5071653;28;20561;-46
2023/03/28 07:53:36;;;;;;;15.60;6.75;;;;;;;21.52;27.64;99629.22;5071408;28;20044;-46
2023/03/28 07:56:03;;;;;;;16.40;5.63;;;;;;;20.52;28.09;99621.94;5071619;28;20024;-46
2023/03/28 07:58:29;;;;;;;10.40;4.97;;;;;;;19.92;28.93;99625.97;5071686;28;20075;-46
2023/03/28 08:00:55;;;;;;;12.60;5.15;;;;;;;19.38;29.17;99637.91;5071542;28;20031;-45
2023/03/28 08:03:22;;;;;;;11.20;5.95;;;;;;;18.26;30.59;99639.56;5071520;28;20028;-46
2023/03/28 08:05:51;;;;;;;11.50;6.03;;;;;;;17.06;32.28;99654.25;5070356;28;20521;-48
2023/03/28 08:08:20;;;;;;;10.52;5.57;;;;;;;16.40;33.45;99651.09;5070244;28;20028;-48
2023/03/28 08:10:49;;;;;;;14.38;5.60;;;;;;;16.01;34.08;99645.00;5071547;28;20095;-49
2023/03/28 08:13:17;;;;;;;13.15;5.60;;;;;;;15.72;34.53;99647.19;5071572;28;20390;-49
2023/03/28 08:15:42;;;;;;;18.40;6.55;;;;;;;15.58;35.22;99658.81;5072038;28;20052;-48
2023/03/28 08:18:08;;;;;;;27.10;6.68;;;;;;;15.61;35.75;99658.38;5075367;28;20453;-49
2023/03/28 08:20:34;;;;;;;17.38;6.38;;;;;;;15.65;35.87;99661.44;5075481;28;20435;-48
2023/03/28 08:23:01;;;;;;;19.00;5.82;;;;;;;15.15;35.88;99661.97;5075391;28;20048;-48
2023/03/28 08:25:27;;;;;;;12.35;5.53;;;;;;;14.80;36.26;99662.19;5075526;28;20020;-48
2023/03/28 08:27:53;;;;;;;15.63;5.53;;;;;;;15.02;36.53;99662.00;5073877;28;20020;-48
2023/03/28 08:30:19;;;;;;;18.42;5.88;;;;;;;15.67;35.89;99660.19;5075268;28;20075;-48
2023/03/28 08:32:45;;;;;;;8.77;4.95;;;;;;;16.54;34.68;99660.59;5075137;28;20494;-48
2023/03/28 08:35:11;;;;;;;12.30;5.35;;;;;;;16.99;34.40;99661.47;5073814;28;20032;-48
2023/03/28 08:37:36;;;;;;;9.95;5.03;;;;;;;17.91;32.92;99656.22;5073810;28;20044;-48
2023/03/28 08:40:07;;;;;;;13.77;5.93;;;;;;;17.62;32.33;99655.91;5073714;28;20525;-48
2023/03/28 08:42:50;;;;;;;14.38;5.15;;;;;;;17.37;32.72;99661.31;5074999;28;20033;-48
2023/03/28 08:45:15;;;;;;;12.20;5.53;;;;;;;16.67;33.65;99667.59;5075017;28;20029;-48
2023/03/28 08:48:20;;;;;;;9.07;4.63;;;;;;;16.36;34.78;99661.31;5074723;28;20031;-48
2023/03/28 08:51:00;;;;;;;32.55;6.15;;;;;;;17.03;33.83;99662.66;5074870;28;20063;-49
2023/03/28 08:53:36;;;;;;;27.80;6.15;;;;;;;17.05;33.42;99660.59;5074557;28;20414;-48
2023/03/28 08:56:04;;;;;;;32.35;7.38;;;;;;;16.80;33.64;99664.03;5075109;28;20103;-48
2023/03/28 08:58:46;;;;;;;32.00;11.95;;;;;;;16.71;34.99;99660.84;5074680;28;20067;-48
2023/03/28 09:01:12;;;;;;;17.80;6.13;;;;;;;18.02;32.93;99666.06;5074749;28;20024;-48
2023/03/28 09:03:37;;;;;;;17.23;5.30;;;;;;;18.18;32.53;99664.63;5074893;28;20493;-48
2023/03/28 09:06:39;;;;;;;12.45;5.28;;;;;;;18.85;32.71;99664.44;5074594;28;20425;-49
2023/03/28 09:09:38;;;;;;;14.93;4.63;;;;;;;19.44;31.79;99663.63;5063932;28;20395;-48
2023/03/28 09:12:15;;;;;;;10.18;4.50;;;;;;;21.50;29.45;99655.38;5074517;28;20020;-46
2023/03/28 09:14:44;;;;;;;12.95;5.07;;;;;;;22.56;27.51;99654.09;5074424;28;20115;-46
2023/03/28 09:17:28;;;;;;;12.88;4.85;;;;;;;22.67;26.87;99658.44;5074266;28;20054;-46
2023/03/28 09:20:15;;;;;;;7.82;3.92;;;;;;;23.62;25.50;99648.81;5074300;28;20116;-46
2023/03/28 09:23:12;;;;;;;12.90;4.70;;;;;;;23.66;24.37;99640.03;5074331;28;20371;-47
2023/03/28 09:25:52;;;;;;;13.20;4.53;;;;;;;23.61;24.52;99628.47;5074224;28;20017;-47
2023/03/28 09:28:26;;;;;;;12.07;4.88;;;;;;;;;;5072751;28;20020;-47
2023/03/28 09:30:54;;;;;;;7.75;4.40;;;;;;;22.24;24.79;99622.78;5074367;28;20033;-47
2023/03/28 09:33:27;;;;;;;7.78;4.47;;;;;;;21.62;25.46;99625.88;5072850;28;20102;-47
2023/03/28 09:35:56;;;;;;;8.63;4.43;;;;;;;21.30;26.29;99624.66;5074056;28;20413;-47
2023/03/28 09:38:30;;;;;;;12.57;4.65;;;;;;;21.16;25.79;99631.41;5074029;28;20024;-47
2023/03/28 09:40:59;;;;;;;7.43;3.83;;;;;;;20.88;26.25;99627.03;5073994;28;20032;-47
2023/03/28 09:43:42;;;;;;;9.65;4.05;;;;;;;20.79;26.87;99625.84;5072587;28;20029;-47
2023/03/28 09:46:17;;;;;;;12.45;4.50;;;;;;;21.36;27.13;99630.88;5073932;28;20033;-47
2023/03/28 09:48:43;;;;;;;10.38;3.80;;;;;;;23.43;25.23;99621.72;5073792;28;20025;-47
2023/03/28 09:51:15;;;;;;;8.48;3.92;;;;;;;24.99;23.67;99623.22;5055929;28;20050;-47
2023/03/28 09:53:41;;;;;;;14.82;3.85;;;;;;;25.90;22.14;99633.91;5073529;28;20044;-47
2023/03/28 09:56:24;;;;;;;8.02;3.55;;;;;;;26.81;21.56;99628.88;5072679;28;20025;-47
2023/03/28 09:58:54;;;;;;;9.50;2.70;;;;;;;26.84;20.27;99633.72;5073685;28;20071;-47
2023/03/28 10:01:45;;;;;;;9.52;2.70;;;;;;;27.54;20.40;99626.22;5055597;28;20029;-47
2023/03/28 10:04:15;;;;;;;6.03;2.28;;;;;;;27.93;18.30;99625.16;5073534;28;20029;-47
2023/03/28 10:06:42;;;;;;;10.75;2.97;;;;;;;27.81;18.34;99639.88;5073358;28;20090;-48
2023/03/28 10:09:23;;;;;;;10.70;2.50;;;;;;;28.41;17.06;99635.72;5072384;28;20036;-48
2023/03/28 10:11:58;;;;;;;9.93;2.15;;;;;;;28.80;17.23;99632.66;5072096;28;20519;-48
2023/03/28 10:14:31;;;;;;;4.38;1.77;;;;;;;28.31;17.22;99636.69;5073347;28;20098;-48
2023/03/28 10:17:02;;;;;;;6.80;1.92;;;;;;;27.88;16.10;99632.22;5073255;28;20028;-48
2023/03/28 10:19:32;;;;;;;3.67;1.30;;;;;;;26.63;15.88;99638.47;5073270;28;20390;-47
2023/03/28 10:22:06;;;;;;;6.55;1.73;;;;;;;26.07;16.77;99628.94;5055596;28;20125;-48
2023/03/28 10:24:32;;;;;;;3.05;1.60;;;;;;;25.75;17.36;99632.06;5073086;28;20033;-47
2023/03/28 10:27:15;;;;;;;4.50;1.77;;;;;;;25.58;16.76;99621.69;5055169;28;20017;-47
2023/03/28 10:29:42;;;;;;;6.45;1.83;;;;;;;25.40;17.45;99620.41;5073067;28;20059;-47
2023/03/28 10:32:12;;;;;;;5.68;1.80;;;;;;;25.67;18.00;99619.22;5071655;28;20534;-47
2023/03/28 10:34:38;;;;;;;5.10;1.52;;;;;;;26.17;16.90;99620.00;5072860;28;20062;-47
2023/03/28 10:37:25;;;;;;;6.95;2.00;;;;;;;26.80;17.46;99621.91;5071543;28;20119;-47
2023/03/28 10:40:00;;;;;;;8.30;1.67;;;;;;;27.06;16.63;99625.13;5072477;28;20082;-47
2023/03/28 10:42:26;;;;;;;7.38;1.60;;;;;;;27.26;16.38;99616.03;5072713;28;20024;-48
2023/03/28 10:45:00;;;;;;;8.48;1.63;;;;;;;27.87;15.84;99606.34;5072633;28;20020;-48
2023/03/28 10:47:26;;;;;;;3.75;1.42;;;;;;;27.86;14.66;99615.50;5072612;28;20142;-47
2023/03/28 10:49:54;;;;;;;3.58;1.63;;;;;;;27.52;14.89;99606.81;5072528;28;20082;-47
2023/03/28 10:52:29;;;;;;;5.88;1.73;;;;;;;27.21;15.32;99612.56;5054842;28;20432;-47
2023/03/28 10:55:19;;;;;;;4.00;1.65;;;;;;;27.05;15.81;99606.56;5071048;28;20053;-47
2023/03/28 10:58:01;;;;;;;3.13;1.67;;;;;;;27.38;16.04;99606.72;5072569;28;20029;-47
2023/03/28 11:00:40;;;;;;;4.00;1.42;;;;;;;27.85;15.75;99603.13;5072699;28;20074;-48
2023/03/28 11:03:14;;;;;;;9.77;2.42;;;;;;;27.79;16.50;99596.19;5072348;28;20036;-48
2023/03/28 11:06:03;;;;;;;9.53;3.10;;;;;;;28.28;15.83;99581.41;5072371;28;20024;-48
2023/03/28 11:09:03;;;;;;;6.07;2.70;;;;;;;26.98;15.17;99587.22;5072197;28;20520;-47
2023/03/28 11:11:45;;;;;;;8.30;2.22;;;;;;;25.50;16.26;99584.63;5062861;28;20033;-48
2023/03/28 11:14:46;;;;;;;5.25;2.00;;;;;;;24.75;17.76;99574.69;5072161;28;20031;-48
2023/03/28 11:17:37;;;;;;;8.55;2.75;;;;;;;23.20;18.49;99582.75;5070855;28;20375;-47
2023/03/28 11:20:16;;;;;;;3.05;1.20;;;;;;;22.53;18.58;99585.84;5070877;28;20028;-47
2023/03/28 11:23:27;;;;;;;3.72;1.20;;;;;;;22.92;18.35;99568.69;5072088;28;20119;-47
2023/03/28 11:26:07;;;;;;;7.60;1.75;;;;;;;24.02;18.34;99548.94;5072206;28;20544;-47
2023/03/28 11:28:43;;;;;;;6.38;1.40;;;;;;;25.49;16.88;99546.22;5072134;28;20040;-48
2023/03/28 11:31:16;;;;;;;2.80;1.52;;;;;;;25.16;16.68;99541.50;5071993;28;20383;-46
2023/03/28 11:33:57;;;;;;;7.35;2.00;;;;;;;24.49;17.96;99529.06;5071995;28;20068;-46
2023/03/28 11:36:40;;;;;;;2.33;1.15;;;;;;;24.87;17.49;99537.59;5070594;28;20498;-47
2023/03/28 11:39:25;;;;;;;4.80;1.60;;;;;;;25.51;17.10;99532.47;5070676;28;20457;-47
2023/03/28 11:41:52;;;;;;;4.10;1.65;;;;;;;24.97;17.35;99526.00;5072226;28;20405;-47
2023/03/28 11:44:35;;;;;;;8.65;2.45;;;;;;;24.69;17.63;99530.94;5071799;28;20025;-47
2023/03/28 11:47:11;;;;;;;9.63;1.75;;;;;;;23.79;18.19;99512.75;5071878;28;20456;-47
2023/03/28 11:49:57;;;;;;;5.68;1.30;;;;;;;22.58;19.37;99523.53;5071657;28;20035;-47
2023/03/28 11:52:30;;;;;;;5.75;2.13;;;;;;;22.13;19.65;99527.47;5069678;28;20119;-47
2023/03/28 11:55:17;;;;;;;3.97;1.80;;;;;;;21.60;19.88;99523.81;5071537;28;20102;-47